Time;durP1;ratioP1;P1;durP2;ratioP2;P2;SDS_P1;SDS_P2;PMS_P1;PMS_P2;Temp;Humidity;BMP_temperature;BMP_pressure;BME280_temperature;BME280_humidity;BME280_pressure;Samples;Min_cycle;Max_cycle;Signal;HPM_P1;HPM_P2
2022/01/31 00:01:44;;;;;;;17.73;7.68;;;5.60;99.90;;;;;;4993265;28;20049;-61
2022/01/31 00:04:09;;;;;;;33.33;10.13;;;5.60;99.90;;;;;;5003587;28;20041;-61
2022/01/31 00:06:35;;;;;;;21.88;8.20;;;5.60;99.90;;;;;;5012739;28;20038;-60
2022/01/31 00:09:00;;;;;;;30.08;9.75;;;5.60;99.90;;;;;;5002696;28;20054;-61
2022/01/31 00:11:26;;;;;;;35.20;11.93;;;5.60;99.90;;;;;;4992535;28;20467;-61
2022/01/31 00:14:03;;;;;;;27.05;10.50;;;5.60;99.90;;;;;;5004757;28;20061;-60
2022/01/31 00:16:32;;;;;;;35.30;10.77;;;5.60;99.90;;;;;;4994683;28;20042;-61
2022/01/31 00:18:59;;;;;;;36.60;12.55;;;5.60;99.90;;;;;;4990950;28;20509;-60
2022/01/31 00:21:26;;;;;;;35.50;12.10;;;5.60;99.90;;;;;;5008892;28;20049;-60
2022/01/31 00:23:52;;;;;;;25.30;10.80;;;5.50;99.90;;;;;;5011749;28;20177;-60
2022/01/31 00:26:17;;;;;;;26.30;10.15;;;5.50;99.90;;;;;;5010433;28;20042;-60
2022/01/31 00:28:43;;;;;;;26.88;10.45;;;5.50;99.90;;;;;;5012251;28;20053;-60
2022/01/31 00:31:08;;;;;;;27.13;9.63;;;5.50;99.90;;;;;;5011435;28;20057;-61
2022/01/31 00:33:34;;;;;;;32.45;10.43;;;5.50;99.90;;;;;;5004317;28;20049;-60
2022/01/31 00:36:00;;;;;;;25.85;9.23;;;5.50;99.90;;;;;;4994254;28;20050;-60
2022/01/31 00:38:26;;;;;;;31.92;9.52;;;5.40;99.90;;;;;;4991975;28;20050;-61
2022/01/31 00:40:51;;;;;;;42.30;10.30;;;5.40;99.90;;;;;;4991568;28;20042;-61
2022/01/31 00:43:19;;;;;;;40.45;10.52;;;5.30;99.90;;;;;;4994256;28;20045;-61
2022/01/31 00:45:57;;;;;;;33.45;11.23;;;5.30;99.90;;;;;;4997252;28;20049;-61
2022/01/31 00:48:25;;;;;;;36.28;11.23;;;5.30;99.90;;;;;;4991820;28;20060;-62
2022/01/31 00:50:51;;;;;;;33.35;9.73;;;5.30;99.90;;;;;;5008352;28;20082;-61
2022/01/31 00:53:17;;;;;;;32.35;9.65;;;5.30;99.90;;;;;;5009547;28;20464;-61
2022/01/31 00:55:42;;;;;;;29.58;10.73;;;5.20;99.90;;;;;;5001465;28;20069;-60
2022/01/31 00:58:08;;;;;;;24.92;8.93;;;5.20;99.90;;;;;;4991315;28;20152;-61
2022/01/31 01:00:34;;;;;;;32.65;11.63;;;5.10;99.90;;;;;;4998772;28;20049;-61
2022/01/31 01:02:59;;;;;;;20.75;8.30;;;5.10;99.90;;;;;;5010708;28;20041;-61
2022/01/31 01:05:25;;;;;;;30.90;11.30;;;5.10;99.90;;;;;;5000429;28;20038;-61
2022/01/31 01:07:50;;;;;;;21.35;8.38;;;5.00;99.90;;;;;;4991114;28;20038;-61
2022/01/31 01:10:18;;;;;;;22.10;8.18;;;5.00;99.90;;;;;;4990909;28;20046;-61
2022/01/31 01:12:47;;;;;;;24.50;9.35;;;5.00;99.90;;;;;;4995195;28;20136;-61
2022/01/31 01:15:14;;;;;;;25.98;8.73;;;5.00;99.90;;;;;;5005496;28;20429;-60
2022/01/31 01:17:40;;;;;;;14.68;7.40;;;4.90;99.90;;;;;;5009232;28;20081;-61
2022/01/31 01:20:07;;;;;;;21.85;7.78;;;5.00;99.90;;;;;;4990798;28;20080;-60
2022/01/31 01:22:33;;;;;;;21.25;8.32;;;4.90;99.90;;;;;;4991317;28;20459;-60
2022/01/31 01:25:00;;;;;;;15.40;7.50;;;4.80;99.90;;;;;;4991336;28;20153;-60
2022/01/31 01:27:26;;;;;;;12.98;6.00;;;4.70;99.90;;;;;;4990780;28;20334;-60
2022/01/31 01:29:52;;;;;;;17.23;6.18;;;4.70;99.90;;;;;;4995404;28;20624;-60
2022/01/31 01:32:17;;;;;;;12.48;4.05;;;4.70;99.90;;;;;;5003541;28;20038;-61
2022/01/31 01:34:44;;;;;;;13.55;5.57;;;4.70;99.90;;;;;;4992624;28;20050;-60
2022/01/31 01:37:10;;;;;;;14.57;3.55;;;4.70;99.90;;;;;;4989734;28;20099;-60
2022/01/31 01:39:35;;;;;;;9.23;3.30;;;4.70;99.90;;;;;;4991460;28;20109;-61
2022/01/31 01:42:02;;;;;;;13.93;3.22;;;4.70;99.90;;;;;;4991024;28;20054;-61
2022/01/31 01:44:50;;;;;;;8.45;2.42;;;4.70;99.90;;;;;;5004344;28;20054;-61
2022/01/31 01:47:21;;;;;;;8.10;2.30;;;4.70;99.90;;;;;;5021302;28;20089;-61
2022/01/31 01:49:48;;;;;;;11.00;2.70;;;4.70;99.90;;;;;;5001768;28;20038;-61
2022/01/31 01:52:14;;;;;;;11.98;2.45;;;4.70;99.90;;;;;;4996956;28;20050;-61
2022/01/31 01:54:40;;;;;;;10.30;3.08;;;4.80;99.90;;;;;;4993707;28;20100;-61
2022/01/31 01:57:06;;;;;;;8.35;2.90;;;4.80;99.90;;;;;;5007384;28;20477;-60
2022/01/31 01:59:36;;;;;;;12.57;3.40;;;4.80;99.90;;;;;;4990099;28;20062;-61
2022/01/31 02:02:04;;;;;;;17.92;4.10;;;4.80;99.90;;;;;;4990269;28;20049;-61
2022/01/31 02:04:31;;;;;;;16.02;3.60;;;4.80;99.90;;;;;;4990145;28;20133;-61
2022/01/31 02:06:57;;;;;;;12.18;3.88;;;4.80;99.90;;;;;;4993923;28;20050;-61
2022/01/31 02:09:25;;;;;;;15.13;4.78;;;4.80;99.90;;;;;;4990279;28;20042;-60
2022/01/31 02:11:54;;;;;;;23.92;5.47;;;4.90;99.90;;;;;;5007373;28;20046;-61
2022/01/31 02:14:21;;;;;;;18.02;5.55;;;4.90;99.90;;;;;;5002268;28;20046;-61
2022/01/31 02:16:49;;;;;;;19.58;5.10;;;4.90;99.90;;;;;;4995552;28;20066;-61
2022/01/31 02:19:16;;;;;;;16.75;5.18;;;5.00;99.90;;;;;;4990300;28;20066;-61
2022/01/31 02:21:43;;;;;;;10.75;5.32;;;5.10;99.90;;;;;;4990602;28;20081;-61
2022/01/31 02:24:09;;;;;;;18.60;4.70;;;5.10;99.90;;;;;;4991699;28;20065;-61
2022/01/31 02:26:34;;;;;;;17.75;5.30;;;5.10;99.90;;;;;;4995728;28;20042;-61
2022/01/31 02:29:00;;;;;;;19.75;5.47;;;5.10;99.90;;;;;;4994039;28;20434;-60
2022/01/31 02:31:25;;;;;;;25.08;6.43;;;5.20;99.90;;;;;;5009818;28;20136;-60
2022/01/31 02:33:51;;;;;;;29.48;5.20;;;5.30;99.90;;;;;;4995784;28;20434;-61
2022/01/31 02:36:16;;;;;;;35.45;8.23;;;5.40;99.90;;;;;;4990267;28;20046;-60
2022/01/31 02:38:42;;;;;;;34.92;7.63;;;5.50;99.90;;;;;;5002067;28;20054;-61
2022/01/31 02:41:07;;;;;;;31.88;7.50;;;5.60;99.90;;;;;;5002194;28;20041;-60
2022/01/31 02:43:34;;;;;;;45.28;8.30;;;5.70;99.90;;;;;;4990864;28;20116;-61
2022/01/31 02:46:00;;;;;;;52.55;8.02;;;5.80;99.90;;;;;;5000118;28;20045;-61
2022/01/31 02:48:29;;;;;;;63.45;9.00;;;5.90;99.90;;;;;;5010117;28;20038;-61
2022/01/31 02:50:56;;;;;;;37.35;8.15;;;6.00;99.90;;;;;;4996899;28;20042;-61
2022/01/31 02:55:47;;;;;;;46.03;8.13;;;6.10;99.90;;;;;;5004492;28;20041;-61
2022/01/31 02:58:13;;;;;;;45.63;9.88;;;6.20;99.90;;;;;;5009468;28;20045;-62
2022/01/31 03:00:39;;;;;;;53.08;9.48;;;6.20;99.90;;;;;;4993211;28;20096;-61
2022/01/31 03:03:05;;;;;;;30.35;6.93;;;6.20;99.90;;;;;;4992257;28;20065;-61
2022/01/31 03:05:31;;;;;;;41.10;6.95;;;6.20;99.90;;;;;;5005660;28;20038;-61
2022/01/31 03:07:56;;;;;;;47.80;8.07;;;6.20;99.90;;;;;;4998313;28;20041;-62
2022/01/31 03:10:22;;;;;;;22.88;6.00;;;6.30;99.90;;;;;;5013197;28;20037;-61
2022/01/31 03:12:48;;;;;;;39.15;7.70;;;6.30;99.90;;;;;;5013580;28;20052;-62
2022/01/31 03:15:13;;;;;;;29.05;8.85;;;6.30;99.90;;;;;;5007512;28;20104;-62
2022/01/31 03:17:42;;;;;;;42.08;7.03;;;6.30;99.90;;;;;;4995507;28;20133;-62
2022/01/31 03:20:08;;;;;;;47.00;6.32;;;6.30;99.90;;;;;;4993036;28;20380;-62
2022/01/31 03:22:34;;;;;;;34.00;5.72;;;6.30;99.90;;;;;;4991640;28;20054;-61
2022/01/31 03:24:59;;;;;;;28.58;5.63;;;6.30;99.90;;;;;;4993299;28;20042;-62
2022/01/31 03:27:25;;;;;;;30.25;4.93;;;6.40;99.90;;;;;;4996326;28;20111;-62
2022/01/31 03:29:50;;;;;;;25.48;4.72;;;6.40;99.90;;;;;;4993942;28;20054;-62
2022/01/31 03:32:16;;;;;;;29.48;5.95;;;6.30;99.90;;;;;;4997486;28;20050;-62
2022/01/31 03:34:41;;;;;;;30.52;5.65;;;6.20;99.90;;;;;;4999075;28;20050;-61
2022/01/31 03:37:07;;;;;;;37.15;6.00;;;6.20;99.90;;;;;;5011552;28;20284;-62
2022/01/31 03:39:32;;;;;;;32.78;3.83;;;6.20;99.90;;;;;;4996571;28;20053;-62
2022/01/31 03:41:58;;;;;;;22.92;4.40;;;6.10;99.90;;;;;;4994045;28;20055;-62
2022/01/31 03:44:24;;;;;;;24.27;4.13;;;6.00;99.90;;;;;;5004275;28;20042;-62
2022/01/31 03:46:49;;;;;;;42.40;7.28;;;6.00;99.90;;;;;;5011357;28;20073;-61
2022/01/31 03:49:15;;;;;;;35.42;6.05;;;6.00;99.90;;;;;;4992276;28;20512;-62
2022/01/31 03:51:40;;;;;;;27.27;5.80;;;6.00;99.90;;;;;;5006604;28;20038;-62
2022/01/31 03:54:06;;;;;;;35.30;7.53;;;6.10;99.90;;;;;;4994003;28;20461;-62
2022/01/31 03:56:31;;;;;;;33.70;5.55;;;6.10;99.90;;;;;;4991700;28;20112;-61
2022/01/31 03:58:57;;;;;;;32.05;5.55;;;6.10;99.90;;;;;;4992291;28;20058;-62
2022/01/31 04:01:23;;;;;;;31.98;6.00;;;6.10;99.90;;;;;;5009432;28;20041;-62
2022/01/31 04:03:49;;;;;;;37.05;5.97;;;6.10;99.90;;;;;;5009987;28;20050;-62
2022/01/31 04:06:14;;;;;;;38.10;6.47;;;6.20;99.90;;;;;;5012456;28;20096;-62
2022/01/31 04:08:40;;;;;;;20.25;3.17;;;6.10;99.90;;;;;;4999656;28;20069;-62
2022/01/31 04:11:05;;;;;;;16.25;3.85;;;6.10;99.90;;;;;;4993479;28;20042;-62
2022/01/31 04:13:31;;;;;;;19.95;4.40;;;6.00;99.90;;;;;;5012488;28;20085;-61
2022/01/31 04:15:57;;;;;;;15.68;3.70;;;6.00;99.90;;;;;;5010922;28;20069;-62
2022/01/31 04:18:22;;;;;;;19.30;3.45;;;5.90;99.90;;;;;;4995023;28;20039;-62
2022/01/31 04:20:48;;;;;;;16.85;3.97;;;5.90;99.90;;;;;;5002892;28;20100;-61
2022/01/31 04:23:16;;;;;;;21.70;4.00;;;5.90;99.90;;;;;;5012055;28;20042;-62
2022/01/31 04:28:20;;;;;;;41.63;5.47;;;5.90;99.90;;;;;;5007510;28;20062;-61
2022/01/31 04:30:53;;;;;;;22.48;3.83;;;5.90;99.90;;;;;;5011812;28;20038;-62
2022/01/31 04:33:20;;;;;;;14.77;3.25;;;5.90;99.90;;;;;;5010616;28;20054;-62
2022/01/31 04:35:46;;;;;;;14.05;3.38;;;5.80;99.90;;;;;;5002036;28;20047;-62
2022/01/31 04:38:11;;;;;;;16.10;2.90;;;5.70;99.90;;;;;;4997345;28;20442;-61
2022/01/31 04:40:37;;;;;;;21.98;2.55;;;5.70;99.90;;;;;;5010360;28;20069;-61
2022/01/31 04:43:03;;;;;;;19.33;3.63;;;5.60;99.90;;;;;;4996566;28;20121;-61
2022/01/31 04:45:28;;;;;;;17.80;3.30;;;5.60;99.90;;;;;;4997461;28;20061;-61
2022/01/31 04:47:54;;;;;;;30.75;5.65;;;5.60;99.90;;;;;;5005460;28;20057;-61
2022/01/31 04:50:19;;;;;;;23.30;4.53;;;5.70;99.90;;;;;;4997854;28;20091;-61
2022/01/31 04:52:45;;;;;;;26.60;2.97;;;5.70;99.90;;;;;;5008608;28;20378;-61
2022/01/31 04:55:11;;;;;;;21.52;3.33;;;5.70;99.90;;;;;;4994891;28;20503;-61
2022/01/31 04:57:37;;;;;;;17.63;2.85;;;5.70;99.90;;;;;;5001423;28;20038;-61
2022/01/31 05:00:06;;;;;;;12.88;3.25;;;5.70;99.90;;;;;;4991121;28;20390;-61
2022/01/31 05:02:32;;;;;;;16.83;2.50;;;5.70;99.90;;;;;;5010474;28;20052;-61
2022/01/31 05:04:57;;;;;;;23.02;2.97;;;5.70;99.90;;;;;;5011496;28;20125;-61
2022/01/31 05:07:23;;;;;;;15.35;3.45;;;5.70;99.90;;;;;;4996157;28;20050;-61
2022/01/31 05:09:49;;;;;;;19.05;2.97;;;5.70;99.90;;;;;;5010426;28;20064;-61
2022/01/31 05:12:14;;;;;;;28.95;4.10;;;5.70;99.90;;;;;;5007002;28;20041;-61
2022/01/31 05:14:40;;;;;;;24.02;4.63;;;5.70;99.90;;;;;;4995217;28;20060;-61
2022/01/31 05:17:06;;;;;;;21.58;4.60;;;5.70;99.90;;;;;;4991531;28;20776;-61
2022/01/31 05:19:32;;;;;;;35.45;4.47;;;5.70;99.90;;;;;;5007324;28;20069;-61
2022/01/31 05:21:57;;;;;;;21.80;3.75;;;5.70;99.90;;;;;;5002532;28;20045;-61
2022/01/31 05:24:23;;;;;;;26.45;3.70;;;5.70;99.90;;;;;;4999704;28;20041;-62
2022/01/31 05:26:50;;;;;;;23.00;3.88;;;5.70;99.90;;;;;;5009968;28;20248;-62
2022/01/31 05:29:20;;;;;;;21.75;4.28;;;5.80;99.90;;;;;;5008795;28;20405;-62
2022/01/31 05:31:47;;;;;;;31.80;4.47;;;5.80;99.90;;;;;;4995625;28;20080;-61
2022/01/31 05:34:12;;;;;;;30.02;4.53;;;5.80;99.90;;;;;;5000437;28;20042;-62
2022/01/31 05:36:41;;;;;;;34.78;6.28;;;5.90;99.90;;;;;;4998514;28;20053;-62
2022/01/31 05:39:07;;;;;;;22.13;4.72;;;5.90;99.90;;;;;;4990702;28;20054;-62
2022/01/31 05:41:33;;;;;;;22.13;3.88;;;5.90;99.90;;;;;;4990579;28;20054;-62
2022/01/31 05:43:58;;;;;;;19.38;4.10;;;5.90;99.90;;;;;;4994227;28;20061;-62
2022/01/31 05:46:24;;;;;;;20.58;3.45;;;5.90;99.90;;;;;;4998886;28;20038;-62
2022/01/31 05:48:50;;;;;;;29.10;5.40;;;5.90;99.90;;;;;;4990522;28;20402;-62
2022/01/31 05:51:21;;;;;;;20.70;3.63;;;5.90;99.90;;;;;;5004734;28;20041;-62
2022/01/31 05:53:49;;;;;;;23.77;4.28;;;5.80;99.90;;;;;;4998781;28;20053;-62
2022/01/31 05:56:15;;;;;;;31.92;5.18;;;5.90;99.90;;;;;;4988598;28;20061;-61
2022/01/31 05:58:42;;;;;;;34.67;5.88;;;5.80;99.90;;;;;;4990990;28;20510;-61
2022/01/31 06:01:08;;;;;;;27.88;3.95;;;5.90;99.90;;;;;;4994405;28;20048;-61
2022/01/31 06:03:34;;;;;;;34.67;5.45;;;5.90;99.90;;;;;;5000806;28;20051;-61
2022/01/31 06:06:00;;;;;;;28.50;5.50;;;5.90;99.90;;;;;;5001168;28;20139;-61
2022/01/31 06:08:25;;;;;;;17.30;3.90;;;5.90;99.90;;;;;;5002553;28;20041;-61
2022/01/31 06:10:51;;;;;;;13.20;3.42;;;5.90;99.90;;;;;;4989956;28;20054;-61
2022/01/31 06:13:23;;;;;;;24.92;4.35;;;5.90;99.90;;;;;;4990637;28;20046;-62
2022/01/31 06:15:49;;;;;;;22.77;2.90;;;5.90;99.90;;;;;;4991582;28;20046;-61
2022/01/31 06:18:14;;;;;;;27.85;3.28;;;5.90;99.90;;;;;;4992210;28;20057;-61
2022/01/31 06:20:40;;;;;;;32.47;4.85;;;5.80;99.90;;;;;;4990970;28;20054;-61
2022/01/31 06:23:06;;;;;;;27.88;5.15;;;5.80;99.90;;;;;;5004288;28;20049;-61
2022/01/31 06:25:32;;;;;;;27.40;5.38;;;5.80;99.90;;;;;;5008042;28;20050;-61
2022/01/31 06:27:57;;;;;;;37.30;5.35;;;5.80;99.90;;;;;;4990201;28;20081;-61
2022/01/31 06:30:24;;;;;;;23.25;5.22;;;5.80;99.90;;;;;;4989547;28;20454;-61
2022/01/31 06:32:50;;;;;;;34.70;5.43;;;5.80;99.90;;;;;;4989144;28;20483;-61
2022/01/31 06:35:16;;;;;;;35.20;6.47;;;5.80;99.90;;;;;;4990239;28;20105;-61
2022/01/31 06:37:42;;;;;;;36.47;4.97;;;5.80;99.90;;;;;;5002877;28;20053;-61
2022/01/31 06:40:08;;;;;;;36.85;5.82;;;5.90;99.90;;;;;;5003489;28;20049;-61
2022/01/31 06:42:34;;;;;;;35.10;5.75;;;5.90;99.90;;;;;;5002927;28;20041;-61
2022/01/31 06:44:59;;;;;;;32.13;5.88;;;5.90;99.90;;;;;;5006642;28;20108;-62
2022/01/31 06:47:25;;;;;;;26.10;5.35;;;6.00;99.90;;;;;;5005587;28;20061;-61
2022/01/31 06:49:51;;;;;;;26.08;5.20;;;6.00;99.90;;;;;;5013716;28;20053;-61
2022/01/31 06:52:16;;;;;;;32.10;7.07;;;6.00;99.90;;;;;;4995723;28;20046;-61
2022/01/31 06:54:43;;;;;;;31.05;5.85;;;6.00;99.90;;;;;;4995594;28;20097;-61
2022/01/31 06:57:09;;;;;;;42.70;6.97;;;6.00;99.90;;;;;;5011635;28;20046;-61
2022/01/31 06:59:35;;;;;;;41.13;6.15;;;6.00;99.90;;;;;;5008347;28;20042;-61
2022/01/31 07:02:00;;;;;;;44.35;7.93;;;6.10;99.90;;;;;;5009443;28;20048;-61
2022/01/31 07:04:26;;;;;;;41.28;6.93;;;6.10;99.90;;;;;;5003676;28;20508;-61
2022/01/31 07:06:51;;;;;;;39.67;6.55;;;6.10;99.90;;;;;;5011057;28;20461;-61
2022/01/31 07:09:17;;;;;;;28.85;6.65;;;6.20;99.90;;;;;;4993572;28;20047;-60
2022/01/31 07:11:43;;;;;;;49.88;8.70;;;6.20;99.90;;;;;;5009998;28;20449;-61
2022/01/31 07:16:53;;;;;;;33.03;6.22;;;6.20;99.90;;;;;;5010573;28;20046;-61
2022/01/31 07:19:22;;;;;;;34.65;7.10;;;6.30;99.90;;;;;;4998055;28;20502;-60
2022/01/31 07:21:48;;;;;;;46.03;7.93;;;6.30;99.90;;;;;;4996689;28;20054;-61
2022/01/31 07:26:44;;;;;;;38.97;7.68;;;6.40;99.90;;;;;;5012709;28;20145;-60
2022/01/31 07:29:10;;;;;;;50.78;9.25;;;6.40;99.90;;;;;;5012685;28;20073;-60
2022/01/31 07:31:36;;;;;;;37.50;7.65;;;6.50;99.90;;;;;;5001441;28;20109;-61
2022/01/31 07:34:01;;;;;;;32.60;5.70;;;6.50;99.90;;;;;;5001031;28;20895;-61
2022/01/31 07:36:28;;;;;;;36.60;6.53;;;6.50;99.90;;;;;;5013209;28;20187;-61
2022/01/31 07:38:54;;;;;;;35.90;7.55;;;6.50;99.90;;;;;;5012643;28;20076;-61
2022/01/31 07:41:20;;;;;;;34.45;7.32;;;6.60;99.90;;;;;;5011357;28;20089;-61
2022/01/31 07:43:46;;;;;;;22.15;5.60;;;6.50;99.90;;;;;;4993037;28;20046;-61
2022/01/31 07:46:15;;;;;;;19.80;4.10;;;6.50;99.90;;;;;;5010208;28;20559;-61
2022/01/31 07:48:41;;;;;;;14.52;2.70;;;6.50;99.90;;;;;;5011770;28;20049;-61
2022/01/31 07:51:08;;;;;;;27.45;4.22;;;6.50;99.90;;;;;;5009429;28;20130;-61
2022/01/31 07:53:37;;;;;;;20.92;4.10;;;6.50;99.90;;;;;;5013135;28;20441;-61
2022/01/31 07:56:07;;;;;;;33.83;6.50;;;6.50;99.90;;;;;;4997164;28;20386;-61
2022/01/31 07:58:32;;;;;;;31.10;4.30;;;6.50;99.90;;;;;;4997869;28;20046;-61
2022/01/31 08:00:59;;;;;;;33.63;6.40;;;6.50;99.90;;;;;;5010992;28;20056;-61
2022/01/31 08:03:25;;;;;;;36.15;6.10;;;6.60;99.90;;;;;;5006438;28;20136;-61
2022/01/31 08:05:50;;;;;;;21.73;4.35;;;6.50;99.90;;;;;;5011810;28;20085;-61
2022/01/31 08:08:16;;;;;;;26.25;4.00;;;6.70;99.90;;;;;;5010924;28;20421;-61
2022/01/31 08:10:42;;;;;;;32.08;4.90;;;6.60;99.90;;;;;;5004482;28;20042;-61
2022/01/31 08:13:08;;;;;;;34.70;5.82;;;6.70;99.90;;;;;;5009915;28;20041;-61
2022/01/31 08:15:45;;;;;;;22.23;4.63;;;6.80;99.90;;;;;;5010624;28;20398;-61
2022/01/31 08:18:11;;;;;;;26.13;5.20;;;6.80;99.90;;;;;;5006152;28;20042;-61
2022/01/31 08:20:36;;;;;;;25.90;4.13;;;6.80;99.90;;;;;;5002167;28;20410;-61
2022/01/31 08:23:02;;;;;;;19.35;3.35;;;6.80;99.90;;;;;;4992850;28;20042;-61
2022/01/31 08:25:29;;;;;;;31.10;4.20;;;6.90;99.90;;;;;;4992754;28;20046;-61
2022/01/31 08:28:00;;;;;;;25.38;4.82;;;6.90;99.90;;;;;;4991449;28;20067;-62
2022/01/31 08:30:36;;;;;;;22.35;4.28;;;7.00;99.90;;;;;;4997534;28;20053;-61
2022/01/31 08:33:12;;;;;;;21.65;3.78;;;6.90;99.90;;;;;;5009880;28;20060;-61
2022/01/31 08:35:48;;;;;;;20.70;3.92;;;7.00;99.90;;;;;;5001382;28;20513;-61
2022/01/31 08:38:16;;;;;;;27.92;3.97;;;7.10;99.90;;;;;;5001640;28;20139;-61
2022/01/31 08:40:42;;;;;;;33.42;6.28;;;7.00;99.90;;;;;;5011885;28;20050;-61
2022/01/31 08:43:07;;;;;;;27.33;4.65;;;7.10;99.90;;;;;;5001217;28;20152;-61
2022/01/31 08:45:34;;;;;;;22.58;4.07;;;7.00;99.90;;;;;;5001187;28;20129;-62
2022/01/31 08:48:01;;;;;;;32.83;4.65;;;7.00;99.90;;;;;;5000937;28;20197;-62
2022/01/31 08:50:26;;;;;;;19.33;4.03;;;7.00;99.90;;;;;;5011879;28;20632;-62
2022/01/31 08:52:52;;;;;;;17.95;3.55;;;7.00;99.90;;;;;;5003691;28;20532;-62
2022/01/31 08:55:20;;;;;;;17.00;3.03;;;7.00;99.90;;;;;;4999326;28;20050;-62
2022/01/31 08:57:47;;;;;;;17.98;3.58;;;7.00;99.90;;;;;;4991952;28;20042;-62
2022/01/31 09:00:13;;;;;;;23.65;3.95;;;7.10;99.90;;;;;;4995826;28;20053;-62
2022/01/31 09:02:48;;;;;;;18.27;3.83;;;7.20;99.90;;;;;;5003484;28;20042;-62
2022/01/31 09:05:13;;;;;;;28.17;5.22;;;7.10;99.90;;;;;;5005484;28;20050;-62
2022/01/31 09:07:39;;;;;;;27.02;4.03;;;7.20;99.90;;;;;;5001370;28;20398;-62
2022/01/31 09:10:05;;;;;;;23.73;3.13;;;7.20;99.90;;;;;;4991526;28;20050;-62
2022/01/31 09:12:33;;;;;;;31.60;3.85;;;7.10;99.90;;;;;;4991504;28;20124;-62
2022/01/31 09:14:59;;;;;;;29.42;5.22;;;7.10;99.90;;;;;;4990373;28;20050;-62
2022/01/31 09:17:24;;;;;;;26.88;4.15;;;7.10;99.90;;;;;;4992102;28;20045;-62
2022/01/31 09:19:50;;;;;;;27.63;4.18;;;7.10;99.90;;;;;;4990318;28;20066;-62
2022/01/31 09:22:15;;;;;;;16.95;3.42;;;7.20;99.90;;;;;;5000855;28;20124;-62
2022/01/31 09:24:41;;;;;;;24.65;5.13;;;7.30;99.90;;;;;;5000923;28;20133;-62
2022/01/31 09:27:10;;;;;;;31.73;6.43;;;7.30;99.90;;;;;;4994378;28;20479;-62
2022/01/31 09:29:36;;;;;;;19.75;3.97;;;7.20;99.90;;;;;;4996785;28;20132;-62
2022/01/31 09:32:04;;;;;;;16.92;3.65;;;7.30;99.90;;;;;;5006101;28;20499;-62
2022/01/31 09:34:33;;;;;;;23.10;5.35;;;7.40;99.90;;;;;;5002943;28;20050;-61
2022/01/31 09:37:00;;;;;;;32.05;3.97;;;7.30;99.90;;;;;;5009443;28;20068;-62
2022/01/31 09:39:26;;;;;;;24.98;4.63;;;7.30;99.90;;;;;;5001202;28;20479;-62
2022/01/31 09:41:53;;;;;;;34.47;4.40;;;7.30;99.90;;;;;;5002039;28;20107;-62
2022/01/31 09:44:48;;;;;;;27.15;4.95;;;7.40;99.90;;;;;;5010117;28;20049;-62
2022/01/31 09:49:47;;;;;;;33.88;5.20;;;7.40;99.90;;;;;;4993337;28;20475;-62
2022/01/31 09:52:13;;;;;;;20.92;3.28;;;7.50;99.90;;;;;;5010321;28;20104;-62
2022/01/31 09:54:39;;;;;;;22.75;3.90;;;7.40;99.90;;;;;;5002285;28;20053;-62
2022/01/31 09:57:04;;;;;;;16.20;3.80;;;7.40;99.90;;;;;;5004809;28;20095;-62
2022/01/31 09:59:30;;;;;;;21.00;3.60;;;7.40;99.90;;;;;;5007936;28;20114;-62
2022/01/31 10:01:57;;;;;;;22.83;3.88;;;7.40;99.90;;;;;;4995275;28;20380;-62
2022/01/31 10:04:30;;;;;;;27.48;3.92;;;7.40;99.90;;;;;;5008284;28;20050;-62
2022/01/31 10:06:57;;;;;;;19.45;3.15;;;7.40;99.90;;;;;;5003751;28;20514;-62
2022/01/31 10:09:28;;;;;;;20.67;2.70;;;7.40;99.90;;;;;;4998374;28;20124;-63
2022/01/31 10:12:06;;;;;;;22.25;3.42;;;7.40;99.90;;;;;;5001859;28;20169;-63
2022/01/31 10:17:31;;;;;;;24.10;3.45;;;7.50;99.90;;;;;;5005403;28;20390;-64
2022/01/31 10:20:00;;;;;;;16.20;2.65;;;7.60;99.90;;;;;;5007135;28;20041;-63
2022/01/31 10:22:29;;;;;;;12.50;2.25;;;7.60;99.90;;;;;;5008706;28;20042;-63
2022/01/31 10:24:58;;;;;;;8.30;1.70;;;7.60;99.90;;;;;;4990684;28;20046;-63
2022/01/31 10:27:29;;;;;;;7.65;2.05;;;7.60;99.90;;;;;;4990703;28;20046;-63
2022/01/31 10:30:09;;;;;;;21.27;2.90;;;7.50;99.90;;;;;;4988756;28;20398;-63
2022/01/31 10:32:37;;;;;;;7.40;1.95;;;7.40;99.90;;;;;;4989526;28;20086;-63
2022/01/31 10:35:08;;;;;;;11.23;2.20;;;7.40;99.90;;;;;;4989790;28;20402;-62
2022/01/31 10:37:36;;;;;;;15.32;2.33;;;7.30;99.90;;;;;;5000473;28;20490;-62
2022/01/31 10:54:10;;;;;;;15.75;2.97;;;7.30;99.90;;;;;;5005914;28;20061;-62
2022/01/31 10:56:38;;;;;;;24.25;3.65;;;7.20;99.90;;;;;;5010456;28;20065;-62
2022/01/31 10:59:11;;;;;;;34.60;4.25;;;7.40;99.90;;;;;;4994701;28;20524;-62
2022/01/31 11:01:38;;;;;;;23.23;4.90;;;7.40;99.90;;;;;;4989632;28;20097;-62
2022/01/31 11:04:06;;;;;;;36.67;6.53;;;7.40;99.90;;;;;;4990184;28;20057;-62
2022/01/31 11:06:33;;;;;;;41.80;9.07;;;7.50;99.90;;;;;;4989773;28;20050;-62
2022/01/31 11:09:08;;;;;;;44.45;6.80;;;7.60;99.90;;;;;;4991471;28;20054;-62
2022/01/31 11:11:35;;;;;;;44.42;6.65;;;7.80;99.90;;;;;;4992207;28;20499;-62
2022/01/31 11:14:02;;;;;;;40.15;7.03;;;7.90;99.90;;;;;;4989014;28;20052;-62
2022/01/31 11:16:29;;;;;;;36.83;6.90;;;8.00;99.90;;;;;;4990168;28;20046;-62
2022/01/31 11:18:58;;;;;;;39.55;8.18;;;8.10;99.90;;;;;;4990508;28;20054;-62
2022/01/31 11:21:28;;;;;;;36.70;8.38;;;8.30;99.90;;;;;;4995636;28;20417;-62
2022/01/31 11:24:00;;;;;;;40.47;6.60;;;8.30;99.90;;;;;;5009822;28;20393;-62
2022/01/31 11:26:38;;;;;;;33.00;7.95;;;8.20;99.90;;;;;;5009765;28;20057;-63
2022/01/31 11:29:06;;;;;;;61.95;10.13;;;8.30;99.90;;;;;;4996406;28;20050;-63
2022/01/31 11:31:34;;;;;;;55.28;8.30;;;8.30;99.90;;;;;;5011874;28;20042;-62
2022/01/31 11:34:01;;;;;;;38.38;7.72;;;8.30;99.90;;;;;;5004286;28;20148;-63
2022/01/31 11:36:27;;;;;;;35.22;6.57;;;8.40;99.90;;;;;;5007898;28;20104;-63
2022/01/31 11:38:52;;;;;;;33.03;7.20;;;8.40;99.90;;;;;;5006352;28;20485;-62
2022/01/31 11:41:19;;;;;;;38.95;7.15;;;8.60;99.90;;;;;;4992500;28;20054;-63
2022/01/31 11:43:53;;;;;;;41.42;9.27;;;8.80;99.90;;;;;;4993129;28;20383;-63
2022/01/31 11:46:24;;;;;;;38.63;7.47;;;9.00;99.90;;;;;;4993887;28;20089;-61
2022/01/31 11:48:52;;;;;;;40.60;6.82;;;9.00;99.90;;;;;;4992620;28;20054;-62
2022/01/31 11:51:18;;;;;;;38.70;5.65;;;9.20;99.90;;;;;;5007297;28;20161;-62
2022/01/31 11:53:44;;;;;;;29.85;5.78;;;9.40;99.90;;;;;;5012310;28;20054;-62
2022/01/31 11:56:22;;;;;;;29.85;6.10;;;9.40;99.90;;;;;;5009026;28;20057;-62
2022/01/31 11:58:50;;;;;;;18.27;4.45;;;9.40;99.90;;;;;;4994789;28;20073;-62
2022/01/31 12:01:18;;;;;;;16.52;3.88;;;9.50;99.90;;;;;;4999596;28;20478;-62
2022/01/31 12:04:13;;;;;;;27.63;3.90;;;9.30;99.90;;;;;;4994431;28;20061;-62
2022/01/31 12:06:38;;;;;;;24.15;4.53;;;9.10;99.90;;;;;;4992450;28;20062;-62
2022/01/31 12:09:10;;;;;;;20.48;3.90;;;9.00;99.90;;;;;;4995637;28;20492;-61
2022/01/31 12:12:10;;;;;;;32.08;5.68;;;9.00;99.90;;;;;;5012196;28;20430;-61
2022/01/31 12:14:47;;;;;;;19.83;4.10;;;8.90;99.90;;;;;;4993871;28;20213;-62
2022/01/31 12:18:24;;;;;;;37.63;6.97;;;9.00;99.90;;;;;;5012555;28;20103;-62
2022/01/31 12:24:07;;;;;;;35.38;6.50;;;8.80;99.90;;;;;;5006628;28;20599;-62
2022/01/31 12:26:32;;;;;;;33.28;6.45;;;8.70;99.90;;;;;;5010680;28;20049;-62
2022/01/31 12:29:08;;;;;;;43.63;7.05;;;8.80;99.90;;;;;;4996481;28;20066;-61
2022/01/31 12:31:46;;;;;;;30.45;6.43;;;8.90;99.90;;;;;;5011427;28;20058;-62
2022/01/31 12:34:20;;;;;;;34.30;6.55;;;8.70;99.90;;;;;;5005841;28;20057;-62
2022/01/31 12:36:57;;;;;;;46.40;8.63;;;8.80;99.90;;;;;;4997305;28;20046;-62
2022/01/31 12:39:29;;;;;;;40.28;8.85;;;8.80;99.90;;;;;;5006265;28;20041;-61
2022/01/31 12:42:15;;;;;;;44.10;8.70;;;8.70;99.90;;;;;;5006774;28;20056;-62
2022/01/31 12:44:42;;;;;;;48.70;8.82;;;8.70;99.90;;;;;;5004855;28;20129;-62
2022/01/31 12:47:19;;;;;;;40.17;6.68;;;8.70;99.90;;;;;;4993295;28;20051;-62
2022/01/31 12:50:05;;;;;;;42.22;8.10;;;8.80;99.90;;;;;;4993612;28;20058;-62
2022/01/31 12:52:35;;;;;;;39.22;8.25;;;8.70;99.90;;;;;;4996618;28;20045;-62
2022/01/31 12:55:11;;;;;;;38.28;8.45;;;8.60;99.90;;;;;;5008512;28;20077;-62
2022/01/31 12:57:51;;;;;;;44.88;8.80;;;8.60;99.90;;;;;;5009641;28;20500;-62
2022/01/31 13:00:40;;;;;;;33.08;8.07;;;8.50;99.90;;;;;;4994521;28;20054;-62
2022/01/31 13:03:06;;;;;;;48.90;8.25;;;8.60;99.90;;;;;;4991421;28;20137;-62
2022/01/31 13:05:36;;;;;;;38.47;7.88;;;8.60;99.90;;;;;;4990828;28;20085;-62
2022/01/31 13:08:21;;;;;;;32.67;6.80;;;8.50;99.90;;;;;;4991465;28;20046;-62
2022/01/31 13:10:47;;;;;;;44.35;6.50;;;8.60;99.90;;;;;;4991846;28;20605;-62
2022/01/31 13:13:13;;;;;;;32.78;8.40;;;8.60;99.90;;;;;;4990420;28;20038;-62
2022/01/31 13:15:39;;;;;;;47.97;8.40;;;8.50;99.90;;;;;;4996602;28;20082;-62
2022/01/31 13:18:06;;;;;;;34.35;6.13;;;8.60;99.90;;;;;;4990525;28;20574;-62
2022/01/31 13:20:33;;;;;;;43.53;7.68;;;8.60;99.90;;;;;;4997545;28;20501;-63
2022/01/31 13:23:00;;;;;;;45.58;8.05;;;8.60;99.90;;;;;;5010277;28;20060;-62